Time;durP1;ratioP1;P1;durP2;ratioP2;P2;SDS_P1;SDS_P2;PMS_P1;PMS_P2;Temp;Humidity;BMP_temperature;BMP_pressure;BME280_temperature;BME280_humidity;BME280_pressure;Samples;Min_cycle;Max_cycle;Signal;HPM_P1;HPM_P2
2023/04/24 00:01:52;;;;;;;27.63;16.27;;;;;;;;;;6271649;28;20120;-53
2023/04/24 00:04:53;;;;;;;28.70;16.50;;;;;;;;;;6265628;28;20053;-60
2023/04/24 00:07:55;;;;;;;29.05;17.25;;;;;;;;;;6271661;28;20415;-55
2023/04/24 00:10:55;;;;;;;32.83;17.02;;;;;;;;;;6270547;28;20106;-53
2023/04/24 00:13:56;;;;;;;28.27;17.85;;;;;;;;;;6266943;28;20033;-54
2023/04/24 00:16:57;;;;;;;32.58;17.77;;;;;;;;;;6270527;28;20408;-55
2023/04/24 00:20:02;;;;;;;28.92;17.38;;;;;;;;;;6271142;28;20037;-52
2023/04/24 00:23:03;;;;;;;26.35;16.13;;;;;;;;;;6273036;28;20131;-55
2023/04/24 00:26:03;;;;;;;26.23;15.82;;;;;;;;;;6272636;28;20510;-59
2023/04/24 00:29:04;;;;;;;30.75;16.50;;;;;;;;;;6272457;28;20128;-60
2023/04/24 00:32:04;;;;;;;26.20;16.70;;;;;;;;;;6269804;28;20122;-55
2023/04/24 00:35:05;;;;;;;25.77;16.05;;;;;;;;;;6270311;28;20049;-59
2023/04/24 00:38:07;;;;;;;26.52;15.82;;;;;;;;;;6268728;28;20057;-54
2023/04/24 00:41:07;;;;;;;25.70;15.40;;;;;;;;;;6270572;28;20037;-53
2023/04/24 00:44:08;;;;;;;27.20;15.40;;;;;;;;;;6268011;28;20304;-53
2023/04/24 00:47:09;;;;;;;26.38;16.08;;;;;;;;;;6269613;28;20521;-58
2023/04/24 00:50:11;;;;;;;26.50;15.68;;;;;;;;;;6272032;28;20217;-55
2023/04/24 00:53:12;;;;;;;26.55;15.70;;;;;;;;;;6269578;28;20045;-54
2023/04/24 00:56:13;;;;;;;29.60;16.50;;;;;;;;;;6265397;28;20511;-53
2023/04/24 00:59:16;;;;;;;27.30;16.10;;;;;;;;;;6269201;28;20508;-54
2023/04/24 01:02:16;;;;;;;25.98;15.57;;;;;;;;;;6274855;28;20076;-54
2023/04/24 01:05:18;;;;;;;28.08;16.08;;;;;;;;;;6266295;28;20045;-54
2023/04/24 01:08:19;;;;;;;27.17;17.80;;;;;;;;;;6266218;28;20047;-52
2023/04/24 01:11:21;;;;;;;32.10;18.90;;;;;;;;;;6270444;28;20037;-56
2023/04/24 01:14:22;;;;;;;32.27;17.47;;;;;;;;;;6269496;28;20056;-52
2023/04/24 01:17:23;;;;;;;30.27;17.20;;;;;;;;;;6267440;28;20044;-52
2023/04/24 01:20:25;;;;;;;29.35;17.13;;;;;;;;;;6267585;28;20048;-53
2023/04/24 01:23:26;;;;;;;31.25;17.15;;;;;;;;;;6268414;28;20053;-59
2023/04/24 01:26:27;;;;;;;26.60;15.60;;;;;;;;;;6268360;28;20500;-53
2023/04/24 01:29:28;;;;;;;28.90;16.20;;;;;;;;;;6272615;28;20041;-59
2023/04/24 01:32:28;;;;;;;24.80;14.50;;;;;;;;;;6267557;28;20049;-56
2023/04/24 01:35:29;;;;;;;21.25;13.98;;;;;;;;;;6265645;28;20060;-53
2023/04/24 01:38:30;;;;;;;22.60;13.75;;;;;;;;;;6269035;28;20158;-59
2023/04/24 01:41:31;;;;;;;25.42;15.90;;;;;;;;;;6270474;28;20796;-60
2023/04/24 01:44:33;;;;;;;30.00;16.47;;;;;;;;;;6267627;28;20094;-54
2023/04/24 01:47:34;;;;;;;;;;;;;;;;;;6268007;28;20526;-53
2023/04/24 01:50:34;;;;;;;21.15;12.73;;;;;;;;;;6269615;28;19920;-58
2023/04/24 01:53:35;;;;;;;21.85;12.93;;;;;;;;;;6268041;28;20041;-60
2023/04/24 01:56:38;;;;;;;23.10;13.05;;;;;;;;;;6267295;28;20491;-53
2023/04/24 01:59:39;;;;;;;21.70;12.57;;;;;;;;;;6268200;28;20042;-58
2023/04/24 02:02:40;;;;;;;20.08;12.07;;;;;;;;;;6268160;28;20036;-54
2023/04/24 02:05:44;;;;;;;16.65;10.60;;;;;;;;;;6266032;28;20151;-53
2023/04/24 02:08:44;;;;;;;17.92;10.82;;;;;;;;;;6271361;28;20048;-53
2023/04/24 02:11:45;;;;;;;16.77;10.95;;;;;;;;;;6262983;28;20191;-53
2023/04/24 02:14:46;;;;;;;18.40;10.80;;;;;;;;;;6267231;28;20086;-53
2023/04/24 02:17:46;;;;;;;23.23;13.73;;;;;;;;;;6267815;28;20041;-53
2023/04/24 02:20:47;;;;;;;20.38;12.48;;;;;;;;;;6265892;28;20736;-55
2023/04/24 02:23:48;;;;;;;18.02;11.48;;;;;;;;;;6268088;28;20735;-58
2023/04/24 02:26:48;;;;;;;18.40;11.70;;;;;;;;;;6264534;28;20066;-55
2023/04/24 02:29:49;;;;;;;17.67;11.60;;;;;;;;;;6267422;28;20052;-53
2023/04/24 02:32:49;;;;;;;18.75;11.27;;;;;;;;;;6264184;28;20033;-55
2023/04/24 02:35:50;;;;;;;21.30;12.60;;;;;;;;;;6262423;28;20437;-59
2023/04/24 02:38:50;;;;;;;18.25;12.00;;;;;;;;;;6265730;28;20532;-54
2023/04/24 02:41:51;;;;;;;17.15;10.82;;;;;;;;;;6266624;28;20492;-54
2023/04/24 02:44:51;;;;;;;16.23;10.80;;;;;;;;;;6266739;28;20531;-56
2023/04/24 02:47:52;;;;;;;17.60;10.38;;;;;;;;;;6266145;28;20045;-57
2023/04/24 02:50:53;;;;;;;17.92;10.38;;;;;;;;;;6269021;28;20033;-54
2023/04/24 02:53:54;;;;;;;17.23;10.60;;;;;;;;;;6270272;28;20037;-59
2023/04/24 02:56:55;;;;;;;15.48;9.98;;;;;;;;;;6267844;28;20111;-57
2023/04/24 02:59:55;;;;;;;15.93;10.13;;;;;;;;;;6266445;28;20054;-56
2023/04/24 03:02:56;;;;;;;15.10;10.52;;;;;;;;;;6264335;28;20403;-55
2023/04/24 03:05:57;;;;;;;18.63;10.57;;;;;;;;;;6264015;28;20532;-51
2023/04/24 03:08:58;;;;;;;17.05;10.38;;;;;;;;;;6268548;28;20051;-53
2023/04/24 03:11:58;;;;;;;16.92;11.02;;;;;;;;;;6266645;28;20044;-54
2023/04/24 03:14:59;;;;;;;16.25;9.82;;;;;;;;;;6264963;28;20060;-55
2023/04/24 03:18:00;;;;;;;14.27;9.77;;;;;;;;;;6267671;28;20041;-52
2023/04/24 03:21:01;;;;;;;18.25;9.63;;;;;;;;;;6268039;28;20415;-54
2023/04/24 03:24:02;;;;;;;18.15;10.18;;;;;;;;;;6264327;28;20615;-60
2023/04/24 03:27:02;;;;;;;16.45;10.00;;;;;;;;;;6267072;28;20044;-54
2023/04/24 03:30:03;;;;;;;17.52;10.52;;;;;;;;;;6266727;28;20036;-52
2023/04/24 03:33:04;;;;;;;17.65;10.48;;;;;;;;;;6263325;28;20056;-53
2023/04/24 03:36:05;;;;;;;18.08;9.80;;;;;;;;;;6261558;28;20132;-56
2023/04/24 03:39:05;;;;;;;17.58;9.90;;;;;;;;;;6266065;28;20044;-55
2023/04/24 03:42:06;;;;;;;20.52;10.90;;;;;;;;;;6264932;28;20046;-54
2023/04/24 03:45:07;;;;;;;17.85;10.13;;;;;;;;;;6263764;28;20045;-55
2023/04/24 03:48:08;;;;;;;19.45;10.25;;;;;;;;;;6267248;28;20053;-56
2023/04/24 03:51:08;;;;;;;17.55;9.75;;;;;;;;;;6266825;28;20041;-53
2023/04/24 03:54:09;;;;;;;19.83;10.07;;;;;;;;;;6265839;28;20784;-60
2023/04/24 03:57:09;;;;;;;17.63;9.70;;;;;;;;;;6267276;28;20048;-54
2023/04/24 04:00:11;;;;;;;20.20;10.05;;;;;;;;;;6266881;28;20053;-55
2023/04/24 04:03:13;;;;;;;18.23;9.65;;;;;;;;;;6268552;28;20045;-54
2023/04/24 04:06:13;;;;;;;17.48;9.32;;;;;;;;;;6264296;28;20051;-53
2023/04/24 04:09:14;;;;;;;19.63;10.30;;;;;;;;;;6266577;28;20049;-51
2023/04/24 04:12:15;;;;;;;19.40;10.23;;;;;;;;;;6263243;28;20040;-53
2023/04/24 04:15:16;;;;;;;18.63;10.95;;;;;;;;;;6264412;28;20753;-55
2023/04/24 04:18:16;;;;;;;13.85;9.48;;;;;;;;;;6263164;28;20056;-52
2023/04/24 04:21:17;;;;;;;14.48;9.50;;;;;;;;;;6265106;28;20044;-55
2023/04/24 04:24:18;;;;;;;18.52;9.90;;;;;;;;;;6262230;28;20848;-52
2023/04/24 04:27:18;;;;;;;15.82;9.75;;;;;;;;;;6265522;28;20096;-54
2023/04/24 04:30:20;;;;;;;14.07;9.77;;;;;;;;;;6271480;28;20419;-51
2023/04/24 04:33:21;;;;;;;15.55;10.05;;;;;;;;;;6279656;28;20052;-60
2023/04/24 04:36:23;;;;;;;14.63;9.75;;;;;;;;;;6269526;28;20044;-58
2023/04/24 04:39:24;;;;;;;17.63;10.48;;;;;;;;;;6270044;28;20052;-53
2023/04/24 04:42:26;;;;;;;15.93;10.18;;;;;;;;;;6270402;28;20621;-58
2023/04/24 04:45:27;;;;;;;18.85;10.27;;;;;;;;;;6269085;28;20044;-53
2023/04/24 04:48:28;;;;;;;17.50;10.45;;;;;;;;;;6270716;28;20476;-57
2023/04/24 04:51:29;;;;;;;16.05;9.30;;;;;;;;;;6267652;28;20052;-55
2023/04/24 04:54:30;;;;;;;16.00;9.70;;;;;;;;;;6266970;28;20053;-61
2023/04/24 04:57:30;;;;;;;15.63;9.32;;;;;;;;;;6269015;28;20048;-59
2023/04/24 05:00:35;;;;;;;20.65;10.30;;;;;;;;;;6269901;28;20484;-52
2023/04/24 05:03:36;;;;;;;22.02;9.15;;;;;;;;;;6265806;28;20094;-52
2023/04/24 05:06:37;;;;;;;17.27;10.05;;;;;;;;;;6268392;28;20055;-58
2023/04/24 05:09:37;;;;;;;16.27;9.23;;;;;;;;;;6267584;28;20487;-53
2023/04/24 05:12:38;;;;;;;13.43;8.52;;;;;;;;;;6272526;28;20519;-53
2023/04/24 05:15:38;;;;;;;13.73;9.18;;;;;;;;;;6272464;28;20044;-57
2023/04/24 05:18:39;;;;;;;14.18;8.73;;;;;;;;;;6267380;28;20055;-55
2023/04/24 05:21:40;;;;;;;17.17;10.30;;;;;;;;;;6266217;28;20045;-52
2023/04/24 05:24:40;;;;;;;20.53;9.70;;;;;;;;;;6263931;28;20053;-54
2023/04/24 05:27:41;;;;;;;14.45;8.50;;;;;;;;;;6271347;28;20045;-56
2023/04/24 05:30:42;;;;;;;13.85;8.07;;;;;;;;;;6267670;28;20165;-54
2023/04/24 05:33:42;;;;;;;12.63;8.45;;;;;;;;;;6265688;28;20045;-53
2023/04/24 05:36:43;;;;;;;13.80;8.68;;;;;;;;;;6264241;28;20073;-53
2023/04/24 05:39:43;;;;;;;16.65;8.80;;;;;;;;;;6267515;28;20758;-57
2023/04/24 05:42:44;;;;;;;14.05;8.40;;;;;;;;;;6268754;28;20487;-56
2023/04/24 05:45:45;;;;;;;17.63;8.85;;;;;;;;;;6269194;28;20043;-58
2023/04/24 05:48:46;;;;;;;13.35;8.05;;;;;;;;;;6270339;28;20044;-56
2023/04/24 05:51:46;;;;;;;22.48;13.68;;;;;;;;;;6266282;28;20052;-55
2023/04/24 05:54:47;;;;;;;15.85;8.63;;;;;;;;;;6265267;28;20040;-54
2023/04/24 05:57:48;;;;;;;16.23;10.13;;;;;;;;;;6264669;28;20028;-55
2023/04/24 06:00:49;;;;;;;20.05;11.13;;;;;;;;;;6267248;28;20041;-55
2023/04/24 06:03:50;;;;;;;18.63;10.63;;;;;;;;;;6266192;28;20128;-56
2023/04/24 06:06:55;;;;;;;16.77;8.20;;;;;;;;;;6267074;28;20328;-53
2023/04/24 06:09:56;;;;;;;14.02;7.88;;;;;;;;;;6267369;28;20063;-54
2023/04/24 06:13:00;;;;;;;17.10;9.55;;;;;;;;;;6265355;28;20049;-56
2023/04/24 06:16:00;;;;;;;20.67;9.98;;;;;;;;;;6261737;28;20049;-56
2023/04/24 06:19:01;;;;;;;19.40;9.57;;;;;;;;;;6263179;28;20139;-51
2023/04/24 06:22:02;;;;;;;16.20;8.05;;;;;;;;;;6266730;28;20044;-54
2023/04/24 06:25:04;;;;;;;12.13;7.32;;;;;;;;;;6266588;28;20052;-53
2023/04/24 06:28:05;;;;;;;10.85;6.80;;;;;;;;;;6263615;28;20044;-54
2023/04/24 06:31:05;;;;;;;9.70;6.53;;;;;;;;;;6267268;28;20044;-55
2023/04/24 06:34:06;;;;;;;11.48;6.28;;;;;;;;;;6265634;28;20424;-58
2023/04/24 06:37:06;;;;;;;11.75;6.85;;;;;;;;;;6265166;28;20130;-57
2023/04/24 06:40:08;;;;;;;12.00;6.93;;;;;;;;;;6264269;28;20488;-55
2023/04/24 06:43:09;;;;;;;12.48;6.82;;;;;;;;;;6266379;28;20662;-57
2023/04/24 06:46:09;;;;;;;10.45;6.55;;;;;;;;;;6263787;28;20506;-59
2023/04/24 06:49:10;;;;;;;13.10;6.97;;;;;;;;;;6268924;28;20083;-55
2023/04/24 06:52:11;;;;;;;14.18;6.82;;;;;;;;;;6271027;28;20048;-57
2023/04/24 06:55:11;;;;;;;10.20;6.40;;;;;;;;;;6265477;28;20623;-55
2023/04/24 06:58:12;;;;;;;9.75;6.60;;;;;;;;;;6262375;28;20041;-57
2023/04/24 07:01:13;;;;;;;14.02;7.10;;;;;;;;;;6263927;28;20045;-58
2023/04/24 07:04:13;;;;;;;11.18;6.60;;;;;;;;;;6261983;28;20049;-56
2023/04/24 07:07:14;;;;;;;12.88;6.07;;;;;;;;;;6266207;28;20053;-57
2023/04/24 07:10:15;;;;;;;10.05;5.75;;;;;;;;;;6267272;28;20127;-58
2023/04/24 07:13:16;;;;;;;11.45;6.38;;;;;;;;;;6268238;28;20506;-55
2023/04/24 07:16:16;;;;;;;14.63;6.93;;;;;;;;;;6262201;28;20056;-58
2023/04/24 07:19:17;;;;;;;9.70;6.35;;;;;;;;;;6263547;28;20060;-55
2023/04/24 07:22:17;;;;;;;10.20;6.45;;;;;;;;;;6263655;28;20052;-55
2023/04/24 07:25:18;;;;;;;10.05;6.35;;;;;;;;;;6262550;28;20567;-54
2023/04/24 07:28:19;;;;;;;10.07;6.70;;;;;;;;;;6269117;28;20061;-56
2023/04/24 07:31:20;;;;;;;10.00;6.18;;;;;;;;;;6266657;28;20045;-54
2023/04/24 07:34:21;;;;;;;9.97;5.93;;;;;;;;;;6263879;28;20049;-57
2023/04/24 07:37:22;;;;;;;10.52;5.65;;;;;;;;;;6266088;28;20340;-59
2023/04/24 07:40:23;;;;;;;13.27;6.22;;;;;;;;;;6264222;28;20059;-57
2023/04/24 07:43:24;;;;;;;10.57;6.40;;;;;;;;;;6263472;28;20045;-59
2023/04/24 07:46:24;;;;;;;10.32;6.32;;;;;;;;;;6264907;28;20134;-57
2023/04/24 07:49:25;;;;;;;8.13;5.67;;;;;;;;;;6264407;28;20056;-56
2023/04/24 07:52:26;;;;;;;10.87;6.63;;;;;;;;;;6262238;28;20642;-55
2023/04/24 07:55:26;;;;;;;13.33;7.00;;;;;;;;;;6265629;28;20564;-54
2023/04/24 07:58:27;;;;;;;9.45;5.63;;;;;;;;;;6261865;28;20110;-52
2023/04/24 08:01:28;;;;;;;10.43;6.40;;;;;;;;;;6267291;28;20549;-51
2023/04/24 08:04:28;;;;;;;8.90;6.03;;;;;;;;;;6262919;28;20041;-59
2023/04/24 08:07:29;;;;;;;9.45;5.80;;;;;;;;;;6266416;28;20057;-56
2023/04/24 08:10:30;;;;;;;10.38;5.85;;;;;;;;;;6269618;28;20047;-55
2023/04/24 08:13:30;;;;;;;9.63;6.10;;;;;;;;;;6265765;28;20052;-55
2023/04/24 08:16:32;;;;;;;8.93;6.20;;;;;;;;;;6269479;28;20056;-58
2023/04/24 08:19:33;;;;;;;7.85;6.05;;;;;;;;;;6273247;28;20052;-55
2023/04/24 08:22:34;;;;;;;12.10;5.95;;;;;;;;;;6272704;28;20036;-56
2023/04/24 08:25:35;;;;;;;9.87;6.40;;;;;;;;;;6266898;28;20037;-57
2023/04/24 08:28:35;;;;;;;11.25;6.38;;;;;;;;;;6268521;28;20076;-56
2023/04/24 08:31:36;;;;;;;8.05;6.05;;;;;;;;;;6270209;28;20056;-53
2023/04/24 08:34:36;;;;;;;10.98;6.50;;;;;;;;;;6268503;28;20048;-58
2023/04/24 08:37:37;;;;;;;8.33;6.27;;;;;;;;;;6268120;28;20139;-56
2023/04/24 08:40:39;;;;;;;12.02;6.25;;;;;;;;;;6268767;28;20045;-56
2023/04/24 08:43:40;;;;;;;;;;;;;;;;;;6267389;28;20037;-59
2023/04/24 08:46:42;;;;;;;7.65;5.90;;;;;;;;;;6267243;28;19974;-54
2023/04/24 08:49:45;;;;;;;10.52;6.80;;;;;;;;;;6272659;28;20048;-55
2023/04/24 08:52:46;;;;;;;11.43;6.32;;;;;;;;;;6280991;28;20048;-56
2023/04/24 08:55:48;;;;;;;10.50;6.45;;;;;;;;;;6277204;28;20698;-53
2023/04/24 08:58:51;;;;;;;9.30;5.60;;;;;;;;;;6268388;28;20060;-57
2023/04/24 09:01:52;;;;;;;8.43;5.93;;;;;;;;;;6270651;28;20455;-55
2023/04/24 09:04:53;;;;;;;10.57;6.20;;;;;;;;;;6267342;28;20052;-54
2023/04/24 09:07:56;;;;;;;8.87;6.27;;;;;;;;;;6269945;28;20044;-56
2023/04/24 09:10:58;;;;;;;8.95;6.13;;;;;;;;;;6272625;28;20136;-54
2023/04/24 09:13:59;;;;;;;11.68;6.90;;;;;;;;;;6268577;28;20051;-55
2023/04/24 09:16:59;;;;;;;13.23;7.97;;;;;;;;;;6267102;28;20049;-57
2023/04/24 09:20:02;;;;;;;12.13;8.50;;;;;;;;;;6269296;28;20056;-54
2023/04/24 09:23:02;;;;;;;9.95;6.68;;;;;;;;;;6268725;28;20562;-59
2023/04/24 09:26:06;;;;;;;9.40;6.73;;;;;;;;;;6265330;28;20071;-55
2023/04/24 09:29:07;;;;;;;11.10;7.20;;;;;;;;;;6268782;28;20419;-53
2023/04/24 09:32:28;;;;;;;8.88;6.28;;;;;;;;;;6269221;28;20050;-56
2023/04/24 09:35:29;;;;;;;8.77;6.35;;;;;;;;;;6269293;28;20147;-58
2023/04/24 09:38:33;;;;;;;11.43;6.70;;;;;;;;;;6265742;28;20615;-55
2023/04/24 09:41:34;;;;;;;9.23;6.40;;;;;;;;;;6266407;28;20052;-60
2023/04/24 09:44:35;;;;;;;10.47;6.27;;;;;;;;;;6268203;28;20045;-57
2023/04/24 09:47:36;;;;;;;13.03;6.40;;;;;;;;;;6267032;28;20053;-56
2023/04/24 09:50:37;;;;;;;11.00;6.38;;;;;;;;;;6269294;28;20037;-56
2023/04/24 09:53:39;;;;;;;8.47;6.40;;;;;;;;;;6268948;28;20106;-57
2023/04/24 09:56:44;;;;;;;13.35;8.30;;;;;;;;;;6266543;28;20072;-57
2023/04/24 09:59:45;;;;;;;13.32;6.50;;;;;;;;;;6264079;28;20032;-56
2023/04/24 10:02:49;;;;;;;10.98;6.40;;;;;;;;;;6267567;28;20049;-55
2023/04/24 10:05:52;;;;;;;10.38;6.75;;;;;;;;;;6266333;28;20077;-57
2023/04/24 10:08:53;;;;;;;9.18;6.60;;;;;;;;;;6263931;28;20056;-57
2023/04/24 10:11:54;;;;;;;10.67;7.13;;;;;;;;;;6267982;28;20057;-56
2023/04/24 10:14:56;;;;;;;;;;;;;;;;;;6267366;28;20087;-56
2023/04/24 10:17:58;;;;;;;11.93;7.32;;;;;;;;;;6267645;28;20276;-55
2023/04/24 10:21:00;;;;;;;14.43;8.70;;;;;;;;;;6267326;28;20059;-56
2023/04/24 10:24:03;;;;;;;9.70;6.55;;;;;;;;;;6267830;28;20051;-56
2023/04/24 10:27:05;;;;;;;17.73;7.50;;;;;;;;;;6267361;28;20029;-59
2023/04/24 10:30:07;;;;;;;10.57;7.43;;;;;;;;;;6265333;28;20047;-55
2023/04/24 10:33:08;;;;;;;10.55;7.47;;;;;;;;;;6266685;28;20045;-57
2023/04/24 10:36:14;;;;;;;11.00;7.13;;;;;;;;;;6264726;28;20805;-55
2023/04/24 10:39:16;;;;;;;11.38;7.55;;;;;;;;;;6264474;28;20068;-59
2023/04/24 10:42:17;;;;;;;13.95;7.88;;;;;;;;;;6267776;28;20090;-56
2023/04/24 10:45:23;;;;;;;11.68;7.85;;;;;;;;;;6266287;28;20044;-58
2023/04/24 10:48:26;;;;;;;11.75;7.70;;;;;;;;;;6272174;28;20137;-56
2023/04/24 10:51:53;;;;;;;11.00;7.40;;;;;;;;;;6267984;28;20601;-56
2023/04/24 10:54:57;;;;;;;12.73;7.20;;;;;;;;;;6271158;28;20142;-57
2023/04/24 10:58:03;;;;;;;11.75;7.10;;;;;;;;;;6265465;28;20036;-58
2023/04/24 11:01:04;;;;;;;11.02;7.40;;;;;;;;;;6269392;28;20045;-57
2023/04/24 11:04:04;;;;;;;12.63;7.63;;;;;;;;;;6265830;28;20384;-56
2023/04/24 11:07:05;;;;;;;13.77;7.17;;;;;;;;;;6265565;28;20053;-58
2023/04/24 11:10:06;;;;;;;9.90;6.73;;;;;;;;;;6265890;28;20044;-56
2023/04/24 11:13:07;;;;;;;12.50;7.00;;;;;;;;;;6267018;28;20055;-58
2023/04/24 11:16:21;;;;;;;10.60;7.13;;;;;;;;;;6266365;28;20048;-57
2023/04/24 11:19:23;;;;;;;12.05;6.93;;;;;;;;;;6267024;28;20607;-58
2023/04/24 11:22:25;;;;;;;10.95;6.82;;;;;;;;;;6262644;28;20045;-56
2023/04/24 11:25:30;;;;;;;12.10;7.15;;;;;;;;;;6264809;28;20186;-56
2023/04/24 11:28:31;;;;;;;11.13;6.95;;;;;;;;;;6264845;28;20459;-59
2023/04/24 11:31:39;;;;;;;12.10;6.90;;;;;;;;;;6265653;28;20102;-58
2023/04/24 11:34:40;;;;;;;10.05;7.05;;;;;;;;;;6264412;28;20041;-55
2023/04/24 11:37:42;;;;;;;12.10;7.77;;;;;;;;;;6267043;28;20056;-52
2023/04/24 11:40:44;;;;;;;12.60;7.50;;;;;;;;;;6264666;28;20055;-53
2023/04/24 11:43:45;;;;;;;11.77;7.57;;;;;;;;;;6264467;28;20052;-56
2023/04/24 11:46:46;;;;;;;13.70;7.60;;;;;;;;;;6268853;28;20048;-56
2023/04/24 11:49:50;;;;;;;10.83;8.00;;;;;;;;;;6266010;28;20067;-56
2023/04/24 11:52:51;;;;;;;39.78;25.98;;;;;;;;;;6263462;28;20043;-56
2023/04/24 11:55:52;;;;;;;18.47;12.43;;;;;;;;;;6265811;28;20102;-56
2023/04/24 11:58:55;;;;;;;13.05;8.43;;;;;;;;;;6264074;28;20377;-55
2023/04/24 12:01:56;;;;;;;9.75;6.95;;;;;;;;;;6264794;28;20056;-53
2023/04/24 12:04:57;;;;;;;11.63;6.87;;;;;;;;;;6264708;28;20143;-57
2023/04/24 12:07:57;;;;;;;9.70;7.00;;;;;;;;;;6267286;28;20048;-55
2023/04/24 12:11:00;;;;;;;12.52;6.90;;;;;;;;;;6264216;28;20136;-55
2023/04/24 12:14:12;;;;;;;9.32;6.88;;;;;;;;;;6266834;28;20043;-56
2023/04/24 12:17:13;;;;;;;10.32;6.72;;;;;;;;;;6265019;28;20045;-53
2023/04/24 12:20:14;;;;;;;16.87;7.60;;;;;;;;;;6262367;28;20048;-56
2023/04/24 12:23:15;;;;;;;11.52;7.18;;;;;;;;;;6265471;28;20144;-59
2023/04/24 12:26:20;;;;;;;9.97;6.63;;;;;;;;;;6265502;28;20415;-53
2023/04/24 12:29:21;;;;;;;11.77;7.07;;;;;;;;;;6265219;28;20048;-58
2023/04/24 12:32:21;;;;;;;11.20;7.43;;;;;;;;;;6263897;28;20052;-59
2023/04/24 12:35:24;;;;;;;12.13;7.13;;;;;;;;;;6264313;28;20041;-56
2023/04/24 12:38:26;;;;;;;9.43;7.10;;;;;;;;;;6263848;28;20052;-53
2023/04/24 12:41:30;;;;;;;11.68;7.60;;;;;;;;;;6265066;28;20056;-55
2023/04/24 12:44:34;;;;;;;10.85;5.95;;;;;;;;;;6259959;28;20042;-55
2023/04/24 12:47:36;;;;;;;7.60;5.38;;;;;;;;;;6262824;28;20244;-56
2023/04/24 12:50:37;;;;;;;8.60;5.40;;;;;;;;;;6266806;28;20048;-56
2023/04/24 12:53:38;;;;;;;;;;;;;;;;;;6270898;28;20060;-56
2023/04/24 12:56:39;;;;;;;7.03;5.20;;;;;;;;;;6270366;28;20046;-56
2023/04/24 12:59:40;;;;;;;8.87;6.20;;;;;;;;;;6268475;28;20048;-56
2023/04/24 13:02:40;;;;;;;18.90;11.55;;;;;;;;;;6268204;28;20403;-56
2023/04/24 13:05:42;;;;;;;11.63;7.97;;;;;;;;;;6267491;28;20210;-54
2023/04/24 13:08:43;;;;;;;12.48;8.68;;;;;;;;;;6268009;28;20033;-58
2023/04/24 13:11:44;;;;;;;9.65;6.93;;;;;;;;;;6268705;28;20587;-56
2023/04/24 13:14:45;;;;;;;9.03;6.53;;;;;;;;;;6265385;28;20064;-54
2023/04/24 13:17:46;;;;;;;11.40;7.10;;;;;;;;;;6267122;28;20047;-53
2023/04/24 13:20:47;;;;;;;10.75;7.65;;;;;;;;;;6266386;28;20041;-54
2023/04/24 13:23:47;;;;;;;12.43;7.43;;;;;;;;;;6266377;28;20083;-54
2023/04/24 13:26:48;;;;;;;9.15;6.90;;;;;;;;;;6268860;28;20049;-56
2023/04/24 13:29:49;;;;;;;11.73;7.82;;;;;;;;;;6265314;28;20116;-55
2023/04/24 13:32:49;;;;;;;10.45;7.32;;;;;;;;;;6263684;28;20060;-54
2023/04/24 13:35:50;;;;;;;8.77;6.85;;;;;;;;;;6263348;28;20367;-56
2023/04/24 13:38:50;;;;;;;8.60;6.57;;;;;;;;;;6266203;28;20049;-54
2023/04/24 13:41:51;;;;;;;9.30;6.82;;;;;;;;;;6260341;28;20122;-56
2023/04/24 13:44:52;;;;;;;19.05;11.88;;;;;;;;;;6262013;28;20041;-53
2023/04/24 13:47:57;;;;;;;14.35;10.48;;;;;;;;;;6262619;28;20086;-56
2023/04/24 13:50:57;;;;;;;15.30;8.93;;;;;;;;;;6263521;28;20415;-57
2023/04/24 13:53:59;;;;;;;12.57;8.65;;;;;;;;;;6261049;28;20076;-55
2023/04/24 13:57:00;;;;;;;11.55;7.75;;;;;;;;;;6258846;28;20060;-56
2023/04/24 14:00:03;;;;;;;11.38;8.02;;;;;;;;;;6263289;28;20032;-55
2023/04/24 14:03:04;;;;;;;16.17;10.88;;;;;;;;;;6263660;28;20044;-57
2023/04/24 14:06:06;;;;;;;20.17;13.32;;;;;;;;;;6260406;28;20059;-55
2023/04/24 14:09:06;;;;;;;16.42;10.02;;;;;;;;;;6262021;28;20052;-54
2023/04/24 14:12:07;;;;;;;15.90;10.30;;;;;;;;;;6263660;28;20136;-58
2023/04/24 14:15:09;;;;;;;15.82;9.57;;;;;;;;;;6263567;28;20503;-55
2023/04/24 14:18:09;;;;;;;10.80;8.50;;;;;;;;;;6263677;28;20056;-57
2023/04/24 14:21:10;;;;;;;14.93;9.57;;;;;;;;;;6261708;28;20592;-53
2023/04/24 14:24:30;;;;;;;14.45;9.48;;;;;;;;;;6260190;28;20056;-55
2023/04/24 14:27:32;;;;;;;14.15;7.13;;;;;;;;;;6258579;28;20097;-57
2023/04/24 14:30:32;;;;;;;10.27;6.88;;;;;;;;;;6265056;28;20517;-56
2023/04/24 14:33:33;;;;;;;14.88;9.73;;;;;;;;;;6263839;28;20044;-55
2023/04/24 14:36:34;;;;;;;11.00;6.45;;;;;;;;;;6263761;28;20040;-55
2023/04/24 14:39:34;;;;;;;11.32;6.07;;;;;;;;;;6265481;28;20048;-57
2023/04/24 14:42:35;;;;;;;10.23;6.00;;;;;;;;;;6265557;28;20052;-56
2023/04/24 14:45:37;;;;;;;10.10;6.28;;;;;;;;;;6267158;28;20049;-58
2023/04/24 14:48:37;;;;;;;8.45;6.30;;;;;;;;;;6262698;28;20041;-56
2023/04/24 14:51:38;;;;;;;11.82;6.95;;;;;;;;;;6270228;28;20045;-55
2023/04/24 14:54:39;;;;;;;11.20;7.63;;;;;;;;;;6271427;28;20133;-56
2023/04/24 14:57:39;;;;;;;9.20;7.07;;;;;;;;;;6277291;28;20055;-60
2023/04/24 15:00:40;;;;;;;8.48;5.78;;;;;;;;;;6269399;28;20466;-56
2023/04/24 15:03:41;;;;;;;10.00;6.28;;;;;;;;;;6271963;28;20048;-56
2023/04/24 15:06:42;;;;;;;10.70;5.03;;;;;;;;;;6267630;28;20082;-55
2023/04/24 15:09:42;;;;;;;8.65;4.47;;;;;;;;;;6271337;28;20071;-56
2023/04/24 15:12:43;;;;;;;8.18;5.20;;;;;;;;;;6276849;28;20045;-58
2023/04/24 15:15:46;;;;;;;6.82;4.95;;;;;;;;;;6270347;28;20466;-55
2023/04/24 15:18:47;;;;;;;7.95;5.03;;;;;;;;;;6274188;28;20072;-54
2023/04/24 15:21:47;;;;;;;7.78;5.47;;;;;;;;;;6272645;28;20048;-56
2023/04/24 15:24:48;;;;;;;7.68;5.25;;;;;;;;;;6269221;28;20795;-59
2023/04/24 15:27:49;;;;;;;8.50;5.90;;;;;;;;;;6272935;28;20049;-55
2023/04/24 15:30:49;;;;;;;9.93;5.57;;;;;;;;;;6273859;28;20054;-56
2023/04/24 15:33:50;;;;;;;8.63;5.90;;;;;;;;;;6274270;28;20044;-59
2023/04/24 15:36:51;;;;;;;8.35;5.15;;;;;;;;;;6271200;28;20044;-56
2023/04/24 15:39:52;;;;;;;9.60;6.95;;;;;;;;;;6274742;28;20044;-59
2023/04/24 15:42:52;;;;;;;12.32;8.10;;;;;;;;;;6269676;28;20566;-56
2023/04/24 15:45:53;;;;;;;10.27;6.40;;;;;;;;;;6271356;28;20498;-57
2023/04/24 15:48:54;;;;;;;9.43;6.32;;;;;;;;;;6276118;28;20491;-57
2023/04/24 15:51:54;;;;;;;12.40;6.78;;;;;;;;;;6275134;28;20068;-56
2023/04/24 15:54:55;;;;;;;12.48;6.50;;;;;;;;;;6269002;28;20040;-55
2023/04/24 15:57:56;;;;;;;13.23;7.20;;;;;;;;;;6271671;28;20514;-55
2023/04/24 16:00:56;;;;;;;10.20;6.13;;;;;;;;;;6273448;28;20064;-59
2023/04/24 16:03:57;;;;;;;11.73;6.90;;;;;;;;;;6271812;28;20796;-57
2023/04/24 16:06:58;;;;;;;8.93;5.47;;;;;;;;;;6270269;28;20435;-60
2023/04/24 16:09:58;;;;;;;7.88;5.88;;;;;;;;;;6272297;28;20055;-55
2023/04/24 16:13:02;;;;;;;9.90;7.00;;;;;;;;;;6275998;28;20045;-55
2023/04/24 16:16:02;;;;;;;8.93;5.82;;;;;;;;;;6272002;28;20072;-56
2023/04/24 16:19:03;;;;;;;9.48;6.13;;;;;;;;;;6270811;28;20083;-56
2023/04/24 16:22:03;;;;;;;9.80;6.30;;;;;;;;;;6274646;28;20044;-54
2023/04/24 16:25:06;;;;;;;12.18;7.70;;;;;;;;;;6270874;28;20037;-56
2023/04/24 16:28:06;;;;;;;;;;;;;;;;;;6279256;28;20048;-57
2023/04/24 16:31:07;;;;;;;11.32;6.28;;;;;;;;;;6278633;28;19935;-56
2023/04/24 16:34:08;;;;;;;10.32;6.70;;;;;;;;;;6287134;28;20032;-56
2023/04/24 16:37:11;;;;;;;10.17;6.50;;;;;;;;;;6276683;28;20049;-54
2023/04/24 16:40:11;;;;;;;10.80;6.82;;;;;;;;;;6275614;28;21081;-54
2023/04/24 16:43:12;;;;;;;12.25;7.20;;;;;;;;;;6274732;28;20047;-56
2023/04/24 16:46:12;;;;;;;12.55;8.07;;;;;;;;;;6274778;28;20037;-56
2023/04/24 16:49:13;;;;;;;11.80;8.00;;;;;;;;;;6287489;28;20056;-54
2023/04/24 16:52:15;;;;;;;10.80;8.18;;;;;;;;;;6290632;28;20051;-55
2023/04/24 16:55:15;;;;;;;15.32;10.55;;;;;;;;;;6288846;28;20047;-57
2023/04/24 16:58:16;;;;;;;12.48;9.35;;;;;;;;;;6291570;28;20130;-54
2023/04/24 17:01:17;;;;;;;12.25;8.60;;;;;;;;;;6288320;28;20131;-55
2023/04/24 17:04:17;;;;;;;13.70;9.25;;;;;;;;;;6288890;28;20466;-54
2023/04/24 17:07:18;;;;;;;13.30;9.52;;;;;;;;;;6292339;28;20507;-56
2023/04/24 17:10:18;;;;;;;12.88;8.85;;;;;;;;;;6288656;28;20059;-56
2023/04/24 17:13:19;;;;;;;13.18;9.88;;;;;;;;;;6288931;28;20517;-53
2023/04/24 17:16:20;;;;;;;14.52;9.32;;;;;;;;;;6285122;28;20840;-55
2023/04/24 17:19:21;;;;;;;14.15;9.35;;;;;;;;;;6286407;28;20055;-55
2023/04/24 17:22:21;;;;;;;13.50;9.85;;;;;;;;;;6281627;28;20040;-58
2023/04/24 17:25:23;;;;;;;14.45;9.57;;;;;;;;;;6283869;28;20048;-59
2023/04/24 17:28:28;;;;;;;14.40;9.35;;;;;;;;;;6287447;28;20049;-56
2023/04/24 17:31:29;;;;;;;13.98;10.00;;;;;;;;;;6276653;28;20044;-55
2023/04/24 17:34:30;;;;;;;14.45;10.07;;;;;;;;;;6276156;28;20036;-55
2023/04/24 17:37:32;;;;;;;15.27;10.02;;;;;;;;;;6278539;28;20062;-55
2023/04/24 17:40:33;;;;;;;14.35;10.00;;;;;;;;;;6285723;28;20055;-56
2023/04/24 17:43:34;;;;;;;16.90;11.57;;;;;;;;;;6283957;28;20036;-58
2023/04/24 17:46:34;;;;;;;15.30;11.07;;;;;;;;;;6283000;28;20048;-55
2023/04/24 17:49:37;;;;;;;19.08;11.73;;;;;;;;;;6284560;28;20054;-55
2023/04/24 17:52:37;;;;;;;18.38;12.68;;;;;;;;;;6271091;28;20047;-54